sensor_id;sensor_type;location;lat;lon;timestamp;P1;durP1;ratioP1;P2;durP2;ratioP2
40012;SDS011;37387;42.672;23.334;2022-07-03T00:01:22;9.2;;;7.1;;
40012;SDS011;37387;42.672;23.334;2022-07-03T00:02:22;9.2;;;6.8;;
40012;SDS011;37387;42.672;23.334;2022-07-03T00:03:22;10.2;;;6.7;;
40012;SDS011;37387;42.672;23.334;2022-07-03T00:04:22;11.3;;;7.3;;
40012;SDS011;37387;42.672;23.334;2022-07-03T00:05:22;11.3;;;7.1;;
40012;SDS011;37387;42.672;23.334;2022-07-03T00:06:22;9.5;;;7.2;;
40012;SDS011;37387;42.672;23.334;2022-07-03T00:07:22;9.5;;;7.1;;
40012;SDS011;37387;42.672;23.334;2022-07-03T00:08:22;9.9;;;7.5;;
40012;SDS011;37387;42.672;23.334;2022-07-03T00:09:22;11.3;;;7.6;;
40012;SDS011;37387;42.672;23.334;2022-07-03T00:10:23;11.3;;;7.4;;
40012;SDS011;37387;42.672;23.334;2022-07-03T00:11:23;12.4;;;7.2;;
40012;SDS011;37387;42.672;23.334;2022-07-03T00:13:23;8.6;;;7.4;;
40012;SDS011;37387;42.672;23.334;2022-07-03T00:14:23;10.7;;;7.2;;
40012;SDS011;37387;42.672;23.334;2022-07-03T00:15:23;10.7;;;7.5;;
40012;SDS011;37387;42.672;23.334;2022-07-03T00:17:23;8.8;;;7.4;;
40012;SDS011;37387;42.672;23.334;2022-07-03T00:18:23;9.4;;;7.2;;
40012;SDS011;37387;42.672;23.334;2022-07-03T00:19:23;8.9;;;7.3;;
40012;SDS011;37387;42.672;23.334;2022-07-03T00:20:23;8.9;;;7.6;;
40012;SDS011;37387;42.672;23.334;2022-07-03T00:21:25;10.2;;;7.8;;
40012;SDS011;37387;42.672;23.334;2022-07-03T00:22:24;12.3;;;7.0;;
40012;SDS011;37387;42.672;23.334;2022-07-03T00:23:23;9.4;;;7.5;;
40012;SDS011;37387;42.672;23.334;2022-07-03T00:24:24;9.4;;;7.6;;
40012;SDS011;37387;42.672;23.334;2022-07-03T00:25:24;9.6;;;7.5;;
40012;SDS011;37387;42.672;23.334;2022-07-03T00:26:24;9.2;;;7.0;;
40012;SDS011;37387;42.672;23.334;2022-07-03T00:27:24;9.3;;;7.2;;
40012;SDS011;37387;42.672;23.334;2022-07-03T00:28:24;9.3;;;7.3;;
40012;SDS011;37387;42.672;23.334;2022-07-03T00:29:25;9.0;;;7.0;;
40012;SDS011;37387;42.672;23.334;2022-07-03T00:30:24;9.9;;;7.2;;
40012;SDS011;37387;42.672;23.334;2022-07-03T00:32:24;10.5;;;7.6;;
40012;SDS011;37387;42.672;23.334;2022-07-03T00:33:26;9.4;;;7.3;;
40012;SDS011;37387;42.672;23.334;2022-07-03T00:34:24;8.2;;;7.5;;
40012;SDS011;37387;42.672;23.334;2022-07-03T00:35:24;9.3;;;7.3;;
40012;SDS011;37387;42.672;23.334;2022-07-03T00:36:25;9.3;;;7.0;;
40012;SDS011;37387;42.672;23.334;2022-07-03T00:37:24;8.9;;;7.4;;
40012;SDS011;37387;42.672;23.334;2022-07-03T00:38:24;9.6;;;7.5;;
40012;SDS011;37387;42.672;23.334;2022-07-03T00:39:24;9.6;;;7.7;;
40012;SDS011;37387;42.672;23.334;2022-07-03T00:40:25;9.5;;;7.3;;
40012;SDS011;37387;42.672;23.334;2022-07-03T00:41:26;10.2;;;7.9;;
40012;SDS011;37387;42.672;23.334;2022-07-03T00:42:25;10.2;;;7.2;;
40012;SDS011;37387;42.672;23.334;2022-07-03T00:43:25;11.1;;;8.1;;
40012;SDS011;37387;42.672;23.334;2022-07-03T00:44:25;12.6;;;7.9;;
40012;SDS011;37387;42.672;23.334;2022-07-03T00:45:25;12.6;;;8.1;;
40012;SDS011;37387;42.672;23.334;2022-07-03T00:46:26;15.2;;;8.6;;
40012;SDS011;37387;42.672;23.334;2022-07-03T00:47:25;15.2;;;9.1;;
40012;SDS011;37387;42.672;23.334;2022-07-03T00:48:25;14.0;;;8.4;;
40012;SDS011;37387;42.672;23.334;2022-07-03T00:49:25;12.9;;;8.5;;
40012;SDS011;37387;42.672;23.334;2022-07-03T00:50:27;13.1;;;8.6;;
40012;SDS011;37387;42.672;23.334;2022-07-03T00:51:26;13.1;;;9.7;;
40012;SDS011;37387;42.672;23.334;2022-07-03T00:52:25;11.2;;;8.8;;
40012;SDS011;37387;42.672;23.334;2022-07-03T00:53:26;11.2;;;9.0;;
40012;SDS011;37387;42.672;23.334;2022-07-03T00:54:26;11.2;;;8.6;;
40012;SDS011;37387;42.672;23.334;2022-07-03T00:55:26;11.2;;;9.1;;
40012;SDS011;37387;42.672;23.334;2022-07-03T00:56:27;11.4;;;9.5;;
40012;SDS011;37387;42.672;23.334;2022-07-03T00:57:28;14.2;;;8.4;;
40012;SDS011;37387;42.672;23.334;2022-07-03T00:58:26;10.8;;;9.3;;
40012;SDS011;37387;42.672;23.334;2022-07-03T00:59:26;13.1;;;9.2;;
40012;SDS011;37387;42.672;23.334;2022-07-03T01:00:26;13.1;;;12.1;;
40012;SDS011;37387;42.672;23.334;2022-07-03T01:01:29;52.9;;;34.9;;
40012;SDS011;37387;42.672;23.334;2022-07-03T01:02:29;20.5;;;15.4;;
40012;SDS011;37387;42.672;23.334;2022-07-03T01:03:26;20.5;;;11.0;;
40012;SDS011;37387;42.672;23.334;2022-07-03T01:04:29;13.0;;;9.6;;
40012;SDS011;37387;42.672;23.334;2022-07-03T01:05:27;13.0;;;9.4;;
40012;SDS011;37387;42.672;23.334;2022-07-03T01:06:26;12.2;;;9.3;;
40012;SDS011;37387;42.672;23.334;2022-07-03T01:07:29;14.0;;;9.1;;
40012;SDS011;37387;42.672;23.334;2022-07-03T01:08:28;13.9;;;9.7;;
40012;SDS011;37387;42.672;23.334;2022-07-03T01:09:29;15.3;;;9.4;;
40012;SDS011;37387;42.672;23.334;2022-07-03T01:10:29;12.8;;;10.0;;
40012;SDS011;37387;42.672;23.334;2022-07-03T01:11:28;15.1;;;9.9;;
40012;SDS011;37387;42.672;23.334;2022-07-03T01:12:31;14.7;;;10.3;;
40012;SDS011;37387;42.672;23.334;2022-07-03T01:14:28;13.6;;;9.8;;
40012;SDS011;37387;42.672;23.334;2022-07-03T01:15:29;13.4;;;10.0;;
40012;SDS011;37387;42.672;23.334;2022-07-03T01:16:30;14.4;;;11.1;;
40012;SDS011;37387;42.672;23.334;2022-07-03T01:17:30;13.6;;;10.0;;
40012;SDS011;37387;42.672;23.334;2022-07-03T01:18:29;14.0;;;10.3;;
40012;SDS011;37387;42.672;23.334;2022-07-03T01:19:36;14.0;;;9.4;;
40012;SDS011;37387;42.672;23.334;2022-07-03T01:20:27;11.7;;;9.5;;
40012;SDS011;37387;42.672;23.334;2022-07-03T01:21:30;13.9;;;9.1;;
40012;SDS011;37387;42.672;23.334;2022-07-03T01:22:29;12.0;;;9.2;;
40012;SDS011;37387;42.672;23.334;2022-07-03T01:23:31;12.9;;;9.8;;
40012;SDS011;37387;42.672;23.334;2022-07-03T01:26:28;14.5;;;9.7;;
40012;SDS011;37387;42.672;23.334;2022-07-03T01:27:29;14.5;;;9.4;;
40012;SDS011;37387;42.672;23.334;2022-07-03T01:28:28;12.9;;;10.0;;
40012;SDS011;37387;42.672;23.334;2022-07-03T01:30:29;16.9;;;10.3;;
40012;SDS011;37387;42.672;23.334;2022-07-03T01:31:28;16.9;;;10.8;;
40012;SDS011;37387;42.672;23.334;2022-07-03T01:32:31;15.4;;;9.9;;
40012;SDS011;37387;42.672;23.334;2022-07-03T01:33:30;13.1;;;10.2;;
40012;SDS011;37387;42.672;23.334;2022-07-03T01:34:30;13.6;;;11.0;;
40012;SDS011;37387;42.672;23.334;2022-07-03T01:35:32;16.0;;;11.1;;
40012;SDS011;37387;42.672;23.334;2022-07-03T01:37:30;15.9;;;10.2;;
40012;SDS011;37387;42.672;23.334;2022-07-03T01:38:29;14.6;;;10.5;;
40012;SDS011;37387;42.672;23.334;2022-07-03T01:39:28;15.4;;;10.2;;
40012;SDS011;37387;42.672;23.334;2022-07-03T01:40:29;15.4;;;10.5;;
40012;SDS011;37387;42.672;23.334;2022-07-03T01:41:29;15.9;;;10.8;;
40012;SDS011;37387;42.672;23.334;2022-07-03T01:42:29;15.9;;;10.5;;
40012;SDS011;37387;42.672;23.334;2022-07-03T01:43:29;13.3;;;10.1;;
40012;SDS011;37387;42.672;23.334;2022-07-03T01:44:29;13.3;;;10.0;;
40012;SDS011;37387;42.672;23.334;2022-07-03T01:45:29;13.4;;;9.8;;
40012;SDS011;37387;42.672;23.334;2022-07-03T01:46:29;13.4;;;10.7;;
40012;SDS011;37387;42.672;23.334;2022-07-03T01:47:29;13.8;;;9.5;;
40012;SDS011;37387;42.672;23.334;2022-07-03T01:48:30;14.0;;;10.7;;
40012;SDS011;37387;42.672;23.334;2022-07-03T01:49:29;16.2;;;10.6;;
40012;SDS011;37387;42.672;23.334;2022-07-03T01:50:29;14.8;;;10.4;;
40012;SDS011;37387;42.672;23.334;2022-07-03T01:51:29;14.3;;;10.7;;
40012;SDS011;37387;42.672;23.334;2022-07-03T01:52:30;15.4;;;10.5;;
40012;SDS011;37387;42.672;23.334;2022-07-03T01:53:30;14.7;;;9.9;;
40012;SDS011;37387;42.672;23.334;2022-07-03T01:54:29;12.9;;;10.3;;
40012;SDS011;37387;42.672;23.334;2022-07-03T01:55:30;16.5;;;10.0;;
40012;SDS011;37387;42.672;23.334;2022-07-03T01:57:41;15.7;;;10.8;;
40012;SDS011;37387;42.672;23.334;2022-07-03T01:58:30;15.7;;;10.4;;
40012;SDS011;37387;42.672;23.334;2022-07-03T01:59:30;13.3;;;9.9;;
40012;SDS011;37387;42.672;23.334;2022-07-03T02:00:30;13.2;;;10.4;;
40012;SDS011;37387;42.672;23.334;2022-07-03T02:01:30;16.6;;;9.9;;
40012;SDS011;37387;42.672;23.334;2022-07-03T02:02:31;15.8;;;10.0;;
40012;SDS011;37387;42.672;23.334;2022-07-03T02:03:31;13.0;;;10.2;;
40012;SDS011;37387;42.672;23.334;2022-07-03T02:04:32;14.6;;;10.4;;
40012;SDS011;37387;42.672;23.334;2022-07-03T02:05:32;14.5;;;10.6;;
40012;SDS011;37387;42.672;23.334;2022-07-03T02:06:35;16.0;;;10.7;;
40012;SDS011;37387;42.672;23.334;2022-07-03T02:07:35;14.1;;;10.4;;
40012;SDS011;37387;42.672;23.334;2022-07-03T02:08:34;13.8;;;10.6;;
40012;SDS011;37387;42.672;23.334;2022-07-03T02:09:33;16.0;;;10.1;;
40012;SDS011;37387;42.672;23.334;2022-07-03T02:10:33;14.5;;;9.9;;
40012;SDS011;37387;42.672;23.334;2022-07-03T02:11:32;14.4;;;10.7;;
40012;SDS011;37387;42.672;23.334;2022-07-03T02:12:33;16.1;;;10.4;;
40012;SDS011;37387;42.672;23.334;2022-07-03T02:13:30;13.4;;;11.1;;
40012;SDS011;37387;42.672;23.334;2022-07-03T02:14:32;14.9;;;10.8;;
40012;SDS011;37387;42.672;23.334;2022-07-03T02:15:31;14.3;;;10.9;;
40012;SDS011;37387;42.672;23.334;2022-07-03T02:16:30;14.3;;;11.1;;
40012;SDS011;37387;42.672;23.334;2022-07-03T02:17:33;16.3;;;10.7;;
40012;SDS011;37387;42.672;23.334;2022-07-03T02:18:32;16.2;;;11.0;;
40012;SDS011;37387;42.672;23.334;2022-07-03T02:19:34;14.9;;;10.0;;
40012;SDS011;37387;42.672;23.334;2022-07-03T02:20:31;15.2;;;11.1;;
40012;SDS011;37387;42.672;23.334;2022-07-03T02:21:31;15.2;;;11.3;;
40012;SDS011;37387;42.672;23.334;2022-07-03T02:22:32;16.0;;;10.5;;
40012;SDS011;37387;42.672;23.334;2022-07-03T02:23:32;15.4;;;11.6;;
40012;SDS011;37387;42.672;23.334;2022-07-03T02:24:31;14.9;;;10.6;;
40012;SDS011;37387;42.672;23.334;2022-07-03T02:25:32;16.1;;;11.1;;
40012;SDS011;37387;42.672;23.334;2022-07-03T02:26:32;16.1;;;10.5;;
40012;SDS011;37387;42.672;23.334;2022-07-03T02:27:32;15.2;;;11.9;;
40012;SDS011;37387;42.672;23.334;2022-07-03T02:28:34;20.5;;;11.2;;
40012;SDS011;37387;42.672;23.334;2022-07-03T02:29:31;20.5;;;11.3;;
40012;SDS011;37387;42.672;23.334;2022-07-03T02:30:34;15.7;;;11.5;;
40012;SDS011;37387;42.672;23.334;2022-07-03T02:31:33;15.2;;;11.3;;
40012;SDS011;37387;42.672;23.334;2022-07-03T02:32:32;16.7;;;10.7;;
40012;SDS011;37387;42.672;23.334;2022-07-03T02:33:31;16.0;;;11.6;;
40012;SDS011;37387;42.672;23.334;2022-07-03T02:34:32;16.0;;;11.4;;
40012;SDS011;37387;42.672;23.334;2022-07-03T02:35:32;16.3;;;11.2;;
40012;SDS011;37387;42.672;23.334;2022-07-03T02:36:31;17.4;;;12.2;;
40012;SDS011;37387;42.672;23.334;2022-07-03T02:37:32;19.4;;;11.8;;
40012;SDS011;37387;42.672;23.334;2022-07-03T02:38:31;17.6;;;12.3;;
40012;SDS011;37387;42.672;23.334;2022-07-03T02:39:34;18.3;;;11.6;;
40012;SDS011;37387;42.672;23.334;2022-07-03T02:40:32;16.6;;;11.8;;
40012;SDS011;37387;42.672;23.334;2022-07-03T02:41:37;17.5;;;11.3;;
40012;SDS011;37387;42.672;23.334;2022-07-03T02:42:35;16.9;;;11.9;;
40012;SDS011;37387;42.672;23.334;2022-07-03T02:43:34;17.9;;;11.8;;
40012;SDS011;37387;42.672;23.334;2022-07-03T02:44:34;17.9;;;12.1;;
40012;SDS011;37387;42.672;23.334;2022-07-03T02:45:36;19.5;;;11.8;;
40012;SDS011;37387;42.672;23.334;2022-07-03T02:46:34;17.4;;;12.1;;
40012;SDS011;37387;42.672;23.334;2022-07-03T02:47:34;17.8;;;12.5;;
40012;SDS011;37387;42.672;23.334;2022-07-03T02:48:34;16.4;;;11.9;;
40012;SDS011;37387;42.672;23.334;2022-07-03T02:49:38;16.4;;;12.0;;
40012;SDS011;37387;42.672;23.334;2022-07-03T02:50:33;17.0;;;12.1;;
40012;SDS011;37387;42.672;23.334;2022-07-03T02:51:35;21.8;;;11.7;;
40012;SDS011;37387;42.672;23.334;2022-07-03T02:52:34;15.6;;;12.4;;
40012;SDS011;37387;42.672;23.334;2022-07-03T02:53:33;18.7;;;11.5;;
40012;SDS011;37387;42.672;23.334;2022-07-03T02:54:32;16.7;;;11.9;;
40012;SDS011;37387;42.672;23.334;2022-07-03T02:55:40;16.7;;;12.0;;
40012;SDS011;37387;42.672;23.334;2022-07-03T02:57:36;17.1;;;11.3;;
40012;SDS011;37387;42.672;23.334;2022-07-03T02:58:38;15.6;;;11.7;;
40012;SDS011;37387;42.672;23.334;2022-07-03T02:59:35;15.6;;;11.8;;
40012;SDS011;37387;42.672;23.334;2022-07-03T03:00:33;16.4;;;11.2;;
40012;SDS011;37387;42.672;23.334;2022-07-03T03:02:38;16.9;;;12.4;;
40012;SDS011;37387;42.672;23.334;2022-07-03T03:03:33;17.2;;;13.0;;
40012;SDS011;37387;42.672;23.334;2022-07-03T03:04:33;16.5;;;12.0;;
40012;SDS011;37387;42.672;23.334;2022-07-03T03:05:35;16.0;;;11.3;;
40012;SDS011;37387;42.672;23.334;2022-07-03T03:06:33;16.4;;;11.6;;
40012;SDS011;37387;42.672;23.334;2022-07-03T03:07:34;15.3;;;11.8;;
40012;SDS011;37387;42.672;23.334;2022-07-03T03:08:34;15.3;;;11.3;;
40012;SDS011;37387;42.672;23.334;2022-07-03T03:09:34;16.8;;;11.7;;
40012;SDS011;37387;42.672;23.334;2022-07-03T03:10:34;17.3;;;10.8;;
40012;SDS011;37387;42.672;23.334;2022-07-03T03:11:37;17.4;;;11.2;;
40012;SDS011;37387;42.672;23.334;2022-07-03T03:12:35;17.4;;;10.4;;
40012;SDS011;37387;42.672;23.334;2022-07-03T03:13:33;13.2;;;11.0;;
40012;SDS011;37387;42.672;23.334;2022-07-03T03:14:37;14.4;;;11.3;;
40012;SDS011;37387;42.672;23.334;2022-07-03T03:16:33;17.2;;;11.1;;
40012;SDS011;37387;42.672;23.334;2022-07-03T03:18:34;17.2;;;11.7;;
40012;SDS011;37387;42.672;23.334;2022-07-03T03:19:35;17.2;;;12.2;;
40012;SDS011;37387;42.672;23.334;2022-07-03T03:20:34;15.4;;;11.3;;
40012;SDS011;37387;42.672;23.334;2022-07-03T03:21:35;17.2;;;11.0;;
40012;SDS011;37387;42.672;23.334;2022-07-03T03:22:36;16.0;;;10.7;;
40012;SDS011;37387;42.672;23.334;2022-07-03T03:25:34;15.7;;;11.3;;
40012;SDS011;37387;42.672;23.334;2022-07-03T03:26:35;15.7;;;11.1;;
40012;SDS011;37387;42.672;23.334;2022-07-03T03:27:34;15.5;;;11.0;;
40012;SDS011;37387;42.672;23.334;2022-07-03T03:28:34;14.5;;;10.8;;
40012;SDS011;37387;42.672;23.334;2022-07-03T03:29:34;13.7;;;10.2;;
40012;SDS011;37387;42.672;23.334;2022-07-03T03:30:34;13.7;;;10.6;;
40012;SDS011;37387;42.672;23.334;2022-07-03T03:32:34;15.4;;;10.7;;
40012;SDS011;37387;42.672;23.334;2022-07-03T03:34:34;15.8;;;10.9;;
40012;SDS011;37387;42.672;23.334;2022-07-03T03:35:35;15.8;;;10.8;;
40012;SDS011;37387;42.672;23.334;2022-07-03T03:36:34;14.8;;;9.8;;
40012;SDS011;37387;42.672;23.334;2022-07-03T03:37:34;16.1;;;10.0;;
40012;SDS011;37387;42.672;23.334;2022-07-03T03:38:34;16.1;;;9.9;;
40012;SDS011;37387;42.672;23.334;2022-07-03T03:39:34;14.2;;;9.8;;
40012;SDS011;37387;42.672;23.334;2022-07-03T03:41:34;15.5;;;9.4;;
40012;SDS011;37387;42.672;23.334;2022-07-03T03:42:35;12.9;;;9.7;;
40012;SDS011;37387;42.672;23.334;2022-07-03T03:43:35;12.3;;;9.4;;
40012;SDS011;37387;42.672;23.334;2022-07-03T03:44:35;12.6;;;8.8;;
40012;SDS011;37387;42.672;23.334;2022-07-03T03:45:35;12.5;;;9.0;;
40012;SDS011;37387;42.672;23.334;2022-07-03T03:46:35;12.5;;;9.9;;
40012;SDS011;37387;42.672;23.334;2022-07-03T03:47:35;12.6;;;9.5;;
40012;SDS011;37387;42.672;23.334;2022-07-03T03:48:35;12.6;;;8.7;;
40012;SDS011;37387;42.672;23.334;2022-07-03T03:49:35;12.3;;;8.5;;
40012;SDS011;37387;42.672;23.334;2022-07-03T03:50:35;13.6;;;8.7;;
40012;SDS011;37387;42.672;23.334;2022-07-03T03:51:35;12.7;;;8.5;;
40012;SDS011;37387;42.672;23.334;2022-07-03T03:52:35;12.7;;;8.9;;
40012;SDS011;37387;42.672;23.334;2022-07-03T03:53:35;12.3;;;8.5;;
40012;SDS011;37387;42.672;23.334;2022-07-03T03:54:36;15.8;;;8.8;;
40012;SDS011;37387;42.672;23.334;2022-07-03T03:55:36;16.0;;;8.4;;
40012;SDS011;37387;42.672;23.334;2022-07-03T03:56:36;12.1;;;8.2;;
40012;SDS011;37387;42.672;23.334;2022-07-03T03:57:36;11.5;;;8.3;;
40012;SDS011;37387;42.672;23.334;2022-07-03T03:58:37;9.9;;;7.9;;
40012;SDS011;37387;42.672;23.334;2022-07-03T03:59:36;9.9;;;8.0;;
40012;SDS011;37387;42.672;23.334;2022-07-03T04:00:36;10.6;;;7.9;;
40012;SDS011;37387;42.672;23.334;2022-07-03T04:01:36;12.0;;;8.0;;
40012;SDS011;37387;42.672;23.334;2022-07-03T04:02:36;12.0;;;7.5;;
40012;SDS011;37387;42.672;23.334;2022-07-03T04:03:37;10.5;;;8.3;;
40012;SDS011;37387;42.672;23.334;2022-07-03T04:04:37;12.1;;;7.4;;
40012;SDS011;37387;42.672;23.334;2022-07-03T04:05:37;10.5;;;7.9;;
40012;SDS011;37387;42.672;23.334;2022-07-03T04:06:37;10.5;;;7.4;;
40012;SDS011;37387;42.672;23.334;2022-07-03T04:07:37;11.4;;;7.7;;
40012;SDS011;37387;42.672;23.334;2022-07-03T04:08:37;12.8;;;7.5;;
40012;SDS011;37387;42.672;23.334;2022-07-03T04:09:37;11.8;;;7.8;;
40012;SDS011;37387;42.672;23.334;2022-07-03T04:10:37;12.3;;;7.7;;
40012;SDS011;37387;42.672;23.334;2022-07-03T04:12:38;12.3;;;7.5;;
40012;SDS011;37387;42.672;23.334;2022-07-03T04:13:38;12.3;;;7.8;;
40012;SDS011;37387;42.672;23.334;2022-07-03T04:14:38;11.3;;;7.9;;
40012;SDS011;37387;42.672;23.334;2022-07-03T04:15:38;10.3;;;7.4;;
40012;SDS011;37387;42.672;23.334;2022-07-03T04:17:38;11.4;;;7.3;;
40012;SDS011;37387;42.672;23.334;2022-07-03T04:18:39;11.1;;;7.6;;
40012;SDS011;37387;42.672;23.334;2022-07-03T04:19:39;11.9;;;8.3;;
40012;SDS011;37387;42.672;23.334;2022-07-03T04:20:39;11.9;;;7.8;;
40012;SDS011;37387;42.672;23.334;2022-07-03T04:21:39;11.4;;;8.7;;
40012;SDS011;37387;42.672;23.334;2022-07-03T04:22:39;11.6;;;8.4;;
40012;SDS011;37387;42.672;23.334;2022-07-03T04:23:39;11.7;;;8.5;;
40012;SDS011;37387;42.672;23.334;2022-07-03T04:24:39;12.5;;;8.1;;
40012;SDS011;37387;42.672;23.334;2022-07-03T04:26:40;12.7;;;8.3;;
40012;SDS011;37387;42.672;23.334;2022-07-03T04:27:40;12.7;;;8.6;;
40012;SDS011;37387;42.672;23.334;2022-07-03T04:28:40;15.9;;;8.9;;
40012;SDS011;37387;42.672;23.334;2022-07-03T04:29:40;15.9;;;8.5;;
40012;SDS011;37387;42.672;23.334;2022-07-03T04:30:40;13.9;;;7.7;;
40012;SDS011;37387;42.672;23.334;2022-07-03T04:31:41;10.5;;;7.6;;
40012;SDS011;37387;42.672;23.334;2022-07-03T04:32:41;12.0;;;7.7;;
40012;SDS011;37387;42.672;23.334;2022-07-03T04:33:41;12.0;;;7.9;;
40012;SDS011;37387;42.672;23.334;2022-07-03T04:34:41;11.6;;;8.1;;
40012;SDS011;37387;42.672;23.334;2022-07-03T04:35:41;11.9;;;7.7;;
40012;SDS011;37387;42.672;23.334;2022-07-03T04:36:41;11.4;;;7.8;;
40012;SDS011;37387;42.672;23.334;2022-07-03T04:37:41;11.8;;;7.4;;
40012;SDS011;37387;42.672;23.334;2022-07-03T04:38:41;11.1;;;7.5;;
40012;SDS011;37387;42.672;23.334;2022-07-03T04:39:42;10.5;;;7.3;;
40012;SDS011;37387;42.672;23.334;2022-07-03T04:40:42;10.9;;;7.7;;
40012;SDS011;37387;42.672;23.334;2022-07-03T04:41:42;10.9;;;7.4;;
40012;SDS011;37387;42.672;23.334;2022-07-03T04:42:42;9.8;;;6.8;;
40012;SDS011;37387;42.672;23.334;2022-07-03T04:43:42;10.0;;;6.9;;
40012;SDS011;37387;42.672;23.334;2022-07-03T04:44:42;9.2;;;6.8;;
40012;SDS011;37387;42.672;23.334;2022-07-03T04:45:43;11.8;;;6.9;;
40012;SDS011;37387;42.672;23.334;2022-07-03T04:46:43;9.8;;;6.4;;
40012;SDS011;37387;42.672;23.334;2022-07-03T04:47:43;9.8;;;6.9;;
40012;SDS011;37387;42.672;23.334;2022-07-03T04:48:43;10.6;;;7.0;;
40012;SDS011;37387;42.672;23.334;2022-07-03T04:49:43;11.3;;;6.6;;
40012;SDS011;37387;42.672;23.334;2022-07-03T04:50:43;8.3;;;7.0;;
40012;SDS011;37387;42.672;23.334;2022-07-03T04:51:44;9.7;;;6.8;;
40012;SDS011;37387;42.672;23.334;2022-07-03T04:52:44;9.7;;;5.9;;
40012;SDS011;37387;42.672;23.334;2022-07-03T04:53:44;9.6;;;6.1;;
40012;SDS011;37387;42.672;23.334;2022-07-03T04:54:44;9.6;;;7.3;;
40012;SDS011;37387;42.672;23.334;2022-07-03T04:55:44;10.9;;;6.8;;
40012;SDS011;37387;42.672;23.334;2022-07-03T04:56:45;10.1;;;7.0;;
40012;SDS011;37387;42.672;23.334;2022-07-03T04:57:45;10.1;;;6.8;;
40012;SDS011;37387;42.672;23.334;2022-07-03T04:58:45;9.0;;;7.3;;
40012;SDS011;37387;42.672;23.334;2022-07-03T04:59:45;10.7;;;7.0;;
40012;SDS011;37387;42.672;23.334;2022-07-03T05:01:45;10.4;;;7.4;;
40012;SDS011;37387;42.672;23.334;2022-07-03T05:02:46;8.9;;;6.9;;
40012;SDS011;37387;42.672;23.334;2022-07-03T05:03:46;8.9;;;6.5;;
40012;SDS011;37387;42.672;23.334;2022-07-03T05:04:46;10.4;;;6.9;;
40012;SDS011;37387;42.672;23.334;2022-07-03T05:05:46;10.4;;;7.4;;
40012;SDS011;37387;42.672;23.334;2022-07-03T05:06:47;8.7;;;7.8;;
40012;SDS011;37387;42.672;23.334;2022-07-03T05:07:47;8.7;;;7.2;;
40012;SDS011;37387;42.672;23.334;2022-07-03T05:08:47;9.7;;;7.3;;
40012;SDS011;37387;42.672;23.334;2022-07-03T05:10:47;9.8;;;7.2;;
40012;SDS011;37387;42.672;23.334;2022-07-03T05:11:47;10.7;;;6.6;;
40012;SDS011;37387;42.672;23.334;2022-07-03T05:12:48;9.2;;;7.1;;
40012;SDS011;37387;42.672;23.334;2022-07-03T05:13:48;9.8;;;6.6;;
40012;SDS011;37387;42.672;23.334;2022-07-03T05:14:48;9.5;;;6.7;;
40012;SDS011;37387;42.672;23.334;2022-07-03T05:16:48;10.2;;;7.0;;
40012;SDS011;37387;42.672;23.334;2022-07-03T05:17:49;9.6;;;7.2;;
40012;SDS011;37387;42.672;23.334;2022-07-03T05:18:51;8.9;;;7.4;;
40012;SDS011;37387;42.672;23.334;2022-07-03T05:19:49;10.9;;;7.6;;
40012;SDS011;37387;42.672;23.334;2022-07-03T05:20:49;10.2;;;7.0;;
40012;SDS011;37387;42.672;23.334;2022-07-03T05:21:49;9.3;;;7.1;;
40012;SDS011;37387;42.672;23.334;2022-07-03T05:22:50;9.3;;;6.5;;
40012;SDS011;37387;42.672;23.334;2022-07-03T05:23:50;8.6;;;6.9;;
40012;SDS011;37387;42.672;23.334;2022-07-03T05:25:50;10.3;;;6.6;;
40012;SDS011;37387;42.672;23.334;2022-07-03T05:26:50;10.3;;;5.8;;
40012;SDS011;37387;42.672;23.334;2022-07-03T05:27:51;7.0;;;6.7;;
40012;SDS011;37387;42.672;23.334;2022-07-03T05:28:51;10.4;;;6.6;;
40012;SDS011;37387;42.672;23.334;2022-07-03T05:29:51;9.2;;;6.4;;
40012;SDS011;37387;42.672;23.334;2022-07-03T05:30:51;9.3;;;6.6;;
40012;SDS011;37387;42.672;23.334;2022-07-03T05:31:51;9.2;;;6.5;;
40012;SDS011;37387;42.672;23.334;2022-07-03T05:32:51;9.7;;;6.8;;
40012;SDS011;37387;42.672;23.334;2022-07-03T05:34:52;8.7;;;6.6;;
40012;SDS011;37387;42.672;23.334;2022-07-03T05:35:54;9.6;;;6.9;;
40012;SDS011;37387;42.672;23.334;2022-07-03T05:36:52;8.5;;;6.8;;
40012;SDS011;37387;42.672;23.334;2022-07-03T05:37:52;8.5;;;6.7;;
40012;SDS011;37387;42.672;23.334;2022-07-03T05:38:53;11.2;;;6.6;;
40012;SDS011;37387;42.672;23.334;2022-07-03T05:39:53;8.2;;;6.9;;
40012;SDS011;37387;42.672;23.334;2022-07-03T05:40:53;8.8;;;7.1;;
40012;SDS011;37387;42.672;23.334;2022-07-03T05:41:53;11.7;;;7.3;;
40012;SDS011;37387;42.672;23.334;2022-07-03T05:42:53;9.1;;;7.0;;
40012;SDS011;37387;42.672;23.334;2022-07-03T05:43:54;9.1;;;6.6;;
40012;SDS011;37387;42.672;23.334;2022-07-03T05:44:54;8.9;;;6.5;;
40012;SDS011;37387;42.672;23.334;2022-07-03T05:45:54;10.0;;;6.2;;
40012;SDS011;37387;42.672;23.334;2022-07-03T05:46:54;9.1;;;6.6;;
40012;SDS011;37387;42.672;23.334;2022-07-03T05:47:54;9.7;;;6.8;;
40012;SDS011;37387;42.672;23.334;2022-07-03T05:48:55;11.1;;;6.2;;
40012;SDS011;37387;42.672;23.334;2022-07-03T05:49:55;9.6;;;6.3;;
40012;SDS011;37387;42.672;23.334;2022-07-03T05:51:55;8.3;;;6.1;;
40012;SDS011;37387;42.672;23.334;2022-07-03T05:53:56;9.2;;;6.0;;
40012;SDS011;37387;42.672;23.334;2022-07-03T05:54:56;7.3;;;6.4;;
40012;SDS011;37387;42.672;23.334;2022-07-03T05:55:57;9.0;;;7.7;;
40012;SDS011;37387;42.672;23.334;2022-07-03T05:56:56;12.1;;;7.4;;
40012;SDS011;37387;42.672;23.334;2022-07-03T05:57:57;12.1;;;7.8;;
40012;SDS011;37387;42.672;23.334;2022-07-03T05:58:57;12.1;;;8.3;;
40012;SDS011;37387;42.672;23.334;2022-07-03T05:59:57;10.5;;;8.2;;
40012;SDS011;37387;42.672;23.334;2022-07-03T06:00:57;11.0;;;8.5;;
40012;SDS011;37387;42.672;23.334;2022-07-03T06:01:57;11.0;;;8.3;;
40012;SDS011;37387;42.672;23.334;2022-07-03T06:02:58;11.6;;;7.6;;
40012;SDS011;37387;42.672;23.334;2022-07-03T06:03:58;10.6;;;7.7;;
40012;SDS011;37387;42.672;23.334;2022-07-03T06:04:58;11.6;;;7.5;;
40012;SDS011;37387;42.672;23.334;2022-07-03T06:05:58;11.2;;;7.4;;
40012;SDS011;37387;42.672;23.334;2022-07-03T06:06:58;9.3;;;7.6;;
40012;SDS011;37387;42.672;23.334;2022-07-03T06:07:59;10.8;;;7.1;;
40012;SDS011;37387;42.672;23.334;2022-07-03T06:08:59;9.7;;;8.0;;
40012;SDS011;37387;42.672;23.334;2022-07-03T06:09:59;11.6;;;7.2;;
40012;SDS011;37387;42.672;23.334;2022-07-03T06:10:59;10.6;;;7.4;;
40012;SDS011;37387;42.672;23.334;2022-07-03T06:12:00;13.0;;;7.9;;
40012;SDS011;37387;42.672;23.334;2022-07-03T06:13:00;11.2;;;7.5;;
40012;SDS011;37387;42.672;23.334;2022-07-03T06:14:00;11.2;;;7.1;;
40012;SDS011;37387;42.672;23.334;2022-07-03T06:15:00;10.4;;;7.4;;
40012;SDS011;37387;42.672;23.334;2022-07-03T06:16:01;11.3;;;8.0;;
40012;SDS011;37387;42.672;23.334;2022-07-03T06:17:01;10.8;;;7.9;;
40012;SDS011;37387;42.672;23.334;2022-07-03T06:18:01;11.2;;;8.4;;
40012;SDS011;37387;42.672;23.334;2022-07-03T06:19:01;11.9;;;7.8;;
40012;SDS011;37387;42.672;23.334;2022-07-03T06:20:02;11.9;;;8.1;;
40012;SDS011;37387;42.672;23.334;2022-07-03T06:21:02;10.9;;;8.2;;
40012;SDS011;37387;42.672;23.334;2022-07-03T06:22:02;14.0;;;7.9;;
40012;SDS011;37387;42.672;23.334;2022-07-03T06:23:02;14.0;;;8.3;;
40012;SDS011;37387;42.672;23.334;2022-07-03T06:24:03;12.7;;;7.1;;
40012;SDS011;37387;42.672;23.334;2022-07-03T06:25:03;11.3;;;7.4;;
40012;SDS011;37387;42.672;23.334;2022-07-03T06:26:03;9.6;;;8.0;;
40012;SDS011;37387;42.672;23.334;2022-07-03T06:27:03;12.0;;;7.9;;
40012;SDS011;37387;42.672;23.334;2022-07-03T06:28:04;9.9;;;7.5;;
40012;SDS011;37387;42.672;23.334;2022-07-03T06:29:04;10.5;;;7.3;;
40012;SDS011;37387;42.672;23.334;2022-07-03T06:30:04;11.0;;;7.4;;